createdAt,value
2022-08-01T00:02:27.913Z,3.42
2022-08-01T00:05:30.876Z,3.20
2022-08-01T00:08:33.726Z,3.00
2022-08-01T00:11:36.422Z,3.17
2022-08-01T00:14:40.507Z,3.40
2022-08-01T00:17:43.235Z,3.58
2022-08-01T00:20:45.970Z,4.32
2022-08-01T00:23:48.753Z,3.45
2022-08-01T00:26:51.384Z,4.47
2022-08-01T00:30:11.073Z,4.05
2022-08-01T00:33:16.860Z,4.07
2022-08-01T00:36:19.575Z,3.58
2022-08-01T00:39:22.515Z,4.20
2022-08-01T00:42:25.211Z,4.03
2022-08-01T00:45:30.066Z,4.22
2022-08-01T00:48:32.753Z,4.40
2022-08-01T00:51:35.378Z,3.50
2022-08-01T00:54:38.147Z,4.30
2022-08-01T00:58:03.243Z,3.80
2022-08-01T01:01:06.643Z,3.88
2022-08-01T01:04:11.460Z,3.78
2022-08-01T01:07:18.856Z,4.07
2022-08-01T01:10:26.661Z,3.85
2022-08-01T01:13:33.670Z,4.85
2022-08-01T01:16:40.163Z,4.35
2022-08-01T01:19:46.195Z,3.83
2022-08-01T01:22:55.587Z,3.60
2022-08-01T01:26:12.830Z,4.43
2022-08-01T01:29:19.209Z,3.45
2022-08-01T01:32:30.930Z,3.88
2022-08-01T01:35:36.279Z,3.72
2022-08-01T01:38:43.046Z,4.10
2022-08-01T01:41:47.417Z,3.42
2022-08-01T01:44:52.104Z,3.70
2022-08-01T01:47:55.959Z,3.53
2022-08-01T01:50:59.708Z,4.45
2022-08-01T01:54:03.172Z,3.85
2022-08-01T01:57:06.912Z,3.28
2022-08-01T02:00:12.693Z,3.90
2022-08-01T02:03:15.862Z,3.92
2022-08-01T02:06:19.707Z,3.42
2022-08-01T02:09:23.526Z,3.88
2022-08-01T02:12:27.210Z,3.15
2022-08-01T02:15:31.814Z,3.10
2022-08-01T02:18:34.709Z,3.13
2022-08-01T02:21:40.835Z,2.33
2022-08-01T02:24:46.250Z,3.20
2022-08-01T02:27:54.224Z,3.05
2022-08-01T02:31:01.473Z,3.00
2022-08-01T02:34:06.715Z,2.65
2022-08-01T02:37:11.730Z,3.17
2022-08-01T02:40:16.187Z,2.58
2022-08-01T02:43:20.919Z,2.95
2022-08-01T02:46:28.766Z,2.80
2022-08-01T02:49:32.749Z,2.38
2022-08-01T02:52:36.995Z,2.75
2022-08-01T02:55:40.832Z,2.78
2022-08-01T02:58:44.838Z,2.97
2022-08-01T03:01:52.174Z,2.67
2022-08-01T03:05:00.264Z,2.08
2022-08-01T03:08:04.338Z,1.95
2022-08-01T03:11:15.342Z,2.08
2022-08-01T03:14:22.526Z,2.03
2022-08-01T03:17:28.926Z,1.50
2022-08-01T03:20:32.355Z,1.88
2022-08-01T03:23:38.420Z,1.75
2022-08-01T03:26:41.641Z,1.92
2022-08-01T03:29:45.711Z,2.05
2022-08-01T03:32:49.947Z,1.70
2022-08-01T03:35:55.684Z,1.63
2022-08-01T03:39:00.173Z,1.48
2022-08-01T03:42:08.487Z,1.55
2022-08-01T03:45:13.630Z,1.63
2022-08-01T03:48:19.866Z,1.40
2022-08-01T03:51:23.399Z,1.67
2022-08-01T03:54:27.220Z,1.50
2022-08-01T03:57:36.540Z,1.80
2022-08-01T04:00:40.887Z,1.80
2022-08-01T04:03:45.177Z,2.03
2022-08-01T04:06:51.444Z,1.67
2022-08-01T04:09:54.850Z,2.08
2022-08-01T04:12:57.579Z,2.00
2022-08-01T04:16:00.505Z,2.00
2022-08-01T04:19:04.811Z,2.03
2022-08-01T04:22:08.157Z,2.17
2022-08-01T04:25:13.471Z,2.28
2022-08-01T04:28:18.294Z,1.85
2022-08-01T04:31:21.523Z,2.08
2022-08-01T04:34:27.675Z,2.10
2022-08-01T04:37:31.214Z,2.50
2022-08-01T04:40:34.381Z,2.33
2022-08-01T04:43:37.348Z,2.13
2022-08-01T04:46:40.269Z,2.28
2022-08-01T04:49:48.759Z,2.45
2022-08-01T04:52:53.205Z,3.05
2022-08-01T04:55:57.839Z,2.92
2022-08-01T04:59:26.896Z,2.05
2022-08-01T05:02:30.139Z,2.60
2022-08-01T05:05:34.864Z,2.40
2022-08-01T05:08:40.319Z,1.90
2022-08-01T05:11:43.141Z,2.33
2022-08-01T05:14:46.882Z,2.78
2022-08-01T05:17:50.481Z,2.70
2022-08-01T05:20:54.572Z,2.13
2022-08-01T05:23:57.282Z,2.72
2022-08-01T05:27:01.390Z,2.22
2022-08-01T05:30:09.180Z,2.35
2022-08-01T05:33:12.208Z,2.17
2022-08-01T05:36:16.558Z,2.15
2022-08-01T05:39:19.306Z,2.10
2022-08-01T05:42:22.043Z,2.80
2022-08-01T05:45:24.791Z,1.90
2022-08-01T05:48:27.567Z,1.92
2022-08-01T05:51:31.876Z,2.35
2022-08-01T05:54:34.573Z,2.22
2022-08-01T05:57:39.145Z,2.15
2022-08-01T06:00:43.432Z,2.20
2022-08-01T06:03:46.367Z,1.85
2022-08-01T06:06:50.420Z,2.15
2022-08-01T06:09:54.095Z,1.10
2022-08-01T06:12:57.329Z,0.70
2022-08-01T06:16:00.070Z,0.70
2022-08-01T06:19:03.398Z,0.73
2022-08-01T06:22:07.850Z,0.77
2022-08-01T06:25:11.898Z,0.77
2022-08-01T06:28:14.565Z,1.00
2022-08-01T06:31:17.211Z,0.85
2022-08-01T06:34:19.964Z,0.77
2022-08-01T06:37:24.383Z,0.73
2022-08-01T06:40:28.257Z,1.20
2022-08-01T06:43:32.225Z,0.90
2022-08-01T06:46:35.104Z,0.77
2022-08-01T06:49:38.929Z,0.98
2022-08-01T06:52:47.157Z,0.80
2022-08-01T06:55:49.935Z,0.82
2022-08-01T06:58:52.809Z,0.90
2022-08-01T07:01:55.410Z,0.75
2022-08-01T07:05:01.145Z,1.00
2022-08-01T07:08:05.968Z,1.00
2022-08-01T07:11:08.748Z,1.02
2022-08-01T07:14:11.509Z,0.90
2022-08-01T07:17:14.345Z,0.93
2022-08-01T07:20:17.377Z,0.85
2022-08-01T07:23:22.709Z,0.85
2022-08-01T07:26:33.144Z,0.80
2022-08-01T07:29:35.952Z,0.70
2022-08-01T07:32:38.796Z,0.73
2022-08-01T07:35:41.788Z,0.80
2022-08-01T07:38:46.375Z,0.70
2022-08-01T07:42:06.342Z,0.70
2022-08-01T07:45:12.553Z,0.60
2022-08-01T07:48:15.554Z,0.82
2022-08-01T07:51:19.612Z,0.95
2022-08-01T07:54:33.464Z,1.25
2022-08-01T07:57:37.231Z,0.82
2022-08-01T08:00:40.062Z,1.10
2022-08-01T08:03:42.905Z,1.00
2022-08-01T08:06:48.460Z,0.80
2022-08-01T08:09:52.620Z,1.15
2022-08-01T08:12:55.352Z,1.75
2022-08-01T08:15:59.511Z,1.00
2022-08-01T08:19:02.372Z,1.02
2022-08-01T08:22:05.344Z,1.13
2022-08-01T08:25:10.441Z,1.02
2022-08-01T08:28:14.440Z,1.35
2022-08-01T08:31:25.352Z,1.65
2022-08-01T08:34:39.905Z,1.42
2022-08-01T08:37:47.447Z,1.25
2022-08-01T08:40:52.337Z,1.25
2022-08-01T08:43:59.187Z,1.45
2022-08-01T08:47:06.106Z,0.82
2022-08-01T08:50:12.169Z,1.52
2022-08-01T08:53:18.990Z,1.38
2022-08-01T08:56:25.494Z,1.35
2022-08-01T08:59:31.201Z,1.20
2022-08-01T09:02:34.078Z,1.20
2022-08-01T09:05:40.067Z,1.15
2022-08-01T09:08:42.800Z,0.98
2022-08-01T09:11:57.007Z,1.17
2022-08-01T09:15:00.672Z,1.13
2022-08-01T09:18:03.236Z,1.05
2022-08-01T09:21:10.998Z,1.15
2022-08-01T09:24:18.009Z,1.13
2022-08-01T09:27:34.929Z,0.77
2022-08-01T09:30:41.083Z,1.10
2022-08-01T09:33:54.232Z,1.58
2022-08-01T09:36:59.064Z,1.63
2022-08-01T09:40:01.740Z,0.98
2022-08-01T09:43:14.958Z,1.38
2022-08-01T09:46:18.069Z,1.40
2022-08-01T09:49:57.524Z,1.33
2022-08-01T09:52:56.958Z,1.77
2022-08-01T09:56:10.625Z,1.40
2022-08-01T09:59:14.984Z,1.48
2022-08-01T10:02:29.046Z,1.48
2022-08-01T10:05:32.922Z,1.27
2022-08-01T10:08:47.720Z,1.17
2022-08-01T10:11:50.433Z,1.30
2022-08-01T10:14:56.342Z,1.42
2022-08-01T10:18:00.261Z,1.10
2022-08-01T10:21:04.055Z,1.13
2022-08-01T10:24:13.458Z,1.17
2022-08-01T10:27:24.554Z,1.63
2022-08-01T10:30:43.364Z,1.23
2022-08-01T10:33:51.114Z,0.80
2022-08-01T10:36:55.861Z,0.82
2022-08-01T10:40:14.427Z,1.10
2022-08-01T10:43:23.970Z,1.10
2022-08-01T10:46:28.411Z,1.42
2022-08-01T10:49:36.303Z,1.10
2022-08-01T10:52:39.712Z,1.10
2022-08-01T10:56:01.473Z,1.60
2022-08-01T10:59:11.700Z,1.60
2022-08-01T11:02:27.680Z,1.30
2022-08-01T11:05:36.531Z,1.35
2022-08-01T11:08:39.975Z,1.45
2022-08-01T11:11:58.864Z,1.33
2022-08-01T11:15:29.419Z,1.35
2022-08-01T11:18:37.573Z,1.20
2022-08-01T11:22:01.179Z,1.10
2022-08-01T11:25:05.935Z,1.05
2022-08-01T11:28:29.084Z,1.20
2022-08-01T11:31:37.174Z,1.30
2022-08-01T11:34:56.278Z,1.20
2022-08-01T11:38:00.196Z,1.10
2022-08-01T11:41:14.739Z,1.20
2022-08-01T11:44:24.826Z,0.93
2022-08-01T11:47:45.709Z,1.10
2022-08-01T11:50:51.859Z,1.00
2022-08-01T11:53:56.834Z,0.85
2022-08-01T11:57:00.853Z,1.55
2022-08-01T12:00:08.538Z,0.95
2022-08-01T12:03:24.342Z,1.00
2022-08-01T12:06:37.689Z,0.90
2022-08-01T12:09:44.556Z,1.35
2022-08-01T12:12:49.373Z,0.93
2022-08-01T12:15:56.325Z,1.40
2022-08-01T12:18:59.421Z,1.00
2022-08-01T12:22:14.237Z,0.80
2022-08-01T12:25:18.946Z,0.95
2022-08-01T12:28:21.873Z,0.90
2022-08-01T12:31:32.831Z,1.27
2022-08-01T12:34:36.405Z,1.00
2022-08-01T12:37:41.135Z,1.30
2022-08-01T12:40:45.583Z,0.85
2022-08-01T12:43:48.885Z,0.73
2022-08-01T12:46:53.685Z,1.10
2022-08-01T12:49:56.566Z,1.52
2022-08-01T12:53:00.725Z,0.80
2022-08-01T12:56:03.474Z,0.93
2022-08-01T12:59:21.119Z,0.85
2022-08-01T13:02:33.238Z,0.70
2022-08-01T13:05:46.288Z,1.35
2022-08-01T13:08:50.445Z,0.85
2022-08-01T13:12:04.566Z,1.20
2022-08-01T13:15:24.498Z,0.93
2022-08-01T13:18:28.673Z,1.00
2022-08-01T13:21:34.576Z,0.98
2022-08-01T13:25:10.909Z,0.90
2022-08-01T13:28:21.220Z,0.77
2022-08-01T13:31:34.211Z,0.93
2022-08-01T13:34:38.280Z,0.80
2022-08-01T13:37:41.790Z,0.70
2022-08-01T13:40:46.146Z,0.80
2022-08-01T13:43:58.783Z,0.70
2022-08-01T13:47:11.619Z,0.80
2022-08-01T13:50:19.855Z,0.70
2022-08-01T13:53:22.744Z,0.65
2022-08-01T13:56:28.462Z,1.08
2022-08-01T13:59:31.421Z,0.77
2022-08-01T14:02:34.940Z,0.90
2022-08-01T14:05:39.653Z,0.73
2022-08-01T14:08:46.052Z,0.50
2022-08-01T14:11:51.914Z,0.88
2022-08-01T14:14:56.809Z,0.70
2022-08-01T14:17:59.671Z,1.00
2022-08-01T14:21:05.780Z,0.70
2022-08-01T14:24:10.672Z,0.82
2022-08-01T14:27:14.842Z,0.80
2022-08-01T14:30:17.540Z,1.00
2022-08-01T14:33:20.215Z,1.00
2022-08-01T14:36:30.595Z,1.05
2022-08-01T14:39:34.690Z,0.82
2022-08-01T14:42:40.021Z,1.10
2022-08-01T14:45:43.286Z,0.93
2022-08-01T14:48:48.659Z,0.90
2022-08-01T14:51:51.631Z,0.82
2022-08-01T14:54:54.572Z,0.65
2022-08-01T14:57:58.882Z,1.00
2022-08-01T15:01:01.933Z,0.93
2022-08-01T15:04:06.090Z,0.70
2022-08-01T15:07:12.873Z,0.80
2022-08-01T15:10:17.221Z,0.80
2022-08-01T15:13:21.615Z,0.90
2022-08-01T15:16:25.483Z,0.88
2022-08-01T15:19:29.140Z,1.13
2022-08-01T15:22:32.193Z,0.65
2022-08-01T15:25:41.960Z,0.80
2022-08-01T15:28:46.496Z,0.70
2022-08-01T15:31:49.419Z,0.98
2022-08-01T15:34:52.604Z,0.70
2022-08-01T15:37:57.204Z,0.73
2022-08-01T15:41:00.162Z,0.90
2022-08-01T15:44:04.668Z,0.90
2022-08-01T15:47:07.497Z,0.88
2022-08-01T15:50:10.671Z,0.52
2022-08-01T15:53:22.929Z,0.60
2022-08-01T15:56:43.212Z,0.80
2022-08-01T15:59:47.153Z,0.82
2022-08-01T16:02:49.784Z,0.88
2022-08-01T16:05:52.322Z,0.93
2022-08-01T16:08:54.966Z,0.90
2022-08-01T16:11:57.582Z,1.00
2022-08-01T16:15:01.570Z,0.70
2022-08-01T16:18:04.181Z,0.80
2022-08-01T16:25:24.202Z,1.33
2022-08-01T16:28:26.984Z,1.02
2022-08-01T16:35:47.551Z,0.95
2022-08-01T16:38:53.580Z,1.00
2022-08-01T16:42:14.551Z,1.27
2022-08-01T16:45:21.063Z,0.90
2022-08-01T16:48:24.843Z,1.25
2022-08-01T16:51:32.605Z,1.08
2022-08-01T16:54:35.439Z,1.05
2022-08-01T16:57:38.407Z,1.25
2022-08-01T17:00:42.859Z,1.02
2022-08-01T17:04:05.641Z,1.27
2022-08-01T17:07:13.646Z,1.15
2022-08-01T17:10:18.591Z,0.90
2022-08-01T17:13:25.466Z,1.30
2022-08-01T17:16:28.149Z,1.08
2022-08-01T17:20:00.498Z,1.25
2022-08-01T17:23:04.500Z,1.38
2022-08-01T17:26:07.208Z,1.20
2022-08-01T17:29:09.811Z,1.10
2022-08-01T17:32:13.161Z,0.90
2022-08-01T17:35:16.055Z,1.30
2022-08-01T17:38:20.566Z,0.98
2022-08-01T17:41:23.235Z,1.83
2022-08-01T17:44:27.731Z,1.33
2022-08-01T17:47:49.915Z,1.20
2022-08-01T17:50:53.102Z,1.30
2022-08-01T17:53:57.959Z,1.55
2022-08-01T17:57:00.749Z,1.02
2022-08-01T18:00:03.615Z,0.90
2022-08-01T18:03:08.215Z,1.30
2022-08-01T18:06:13.420Z,1.00
2022-08-01T18:09:17.535Z,1.27
2022-08-01T18:12:23.354Z,1.30
2022-08-01T18:15:37.741Z,1.50
2022-08-01T18:18:40.968Z,1.23
2022-08-01T18:21:43.868Z,1.17
2022-08-01T18:24:48.212Z,1.42
2022-08-01T18:28:18.995Z,1.17
2022-08-01T18:31:16.875Z,1.30
2022-08-01T18:34:19.974Z,0.90
2022-08-01T18:37:23.473Z,1.40
2022-08-01T18:40:31.599Z,1.10
2022-08-01T18:43:36.420Z,0.90
2022-08-01T18:46:40.174Z,1.67
2022-08-01T18:49:43.203Z,0.82
2022-08-01T18:52:45.989Z,0.90
2022-08-01T18:55:50.382Z,1.17
2022-08-01T18:58:55.698Z,1.08
2022-08-01T19:01:58.487Z,1.00
2022-08-01T19:05:01.431Z,0.85
2022-08-01T19:08:07.823Z,1.10
2022-08-01T19:11:12.498Z,1.30
2022-08-01T19:14:15.336Z,1.17
2022-08-01T19:17:19.717Z,0.90
2022-08-01T19:20:26.609Z,1.40
2022-08-01T19:23:47.013Z,1.00
2022-08-01T19:26:56.083Z,1.02
2022-08-01T19:29:59.496Z,1.50
2022-08-01T19:33:02.456Z,1.00
2022-08-01T19:36:06.112Z,1.08
2022-08-01T19:39:10.131Z,1.15
2022-08-01T19:42:15.273Z,1.40
2022-08-01T19:45:18.346Z,1.33
2022-08-01T19:48:22.158Z,0.77
2022-08-01T19:54:46.300Z,1.08
2022-08-01T19:58:16.900Z,0.95
2022-08-01T20:01:15.488Z,0.90
2022-08-01T20:04:18.831Z,0.85
2022-08-01T20:07:21.956Z,0.98
2022-08-01T20:10:25.709Z,0.80
2022-08-01T20:13:37.042Z,1.30
2022-08-01T20:16:43.472Z,0.88
2022-08-01T20:19:46.560Z,1.10
2022-08-01T20:22:49.836Z,0.77
2022-08-01T20:25:53.822Z,1.35
2022-08-01T20:28:58.099Z,1.40
2022-08-01T20:32:01.819Z,0.90
2022-08-01T20:35:05.090Z,1.20
2022-08-01T20:38:08.179Z,1.05
2022-08-01T20:41:15.082Z,1.00
2022-08-01T20:44:20.037Z,1.17
2022-08-01T20:47:23.437Z,0.90
2022-08-01T20:50:53.356Z,1.10
2022-08-01T20:53:57.525Z,1.00
2022-08-01T20:57:03.611Z,1.05
2022-08-01T21:00:09.763Z,1.00
2022-08-01T21:03:15.715Z,1.08
2022-08-01T21:06:22.515Z,1.05
2022-08-01T21:09:25.975Z,1.25
2022-08-01T21:12:29.309Z,0.77
2022-08-01T21:15:34.858Z,1.00
2022-08-01T21:18:38.701Z,0.88
2022-08-01T21:21:44.060Z,0.93
2022-08-01T21:24:58.223Z,1.20
2022-08-01T21:28:02.466Z,1.08
2022-08-01T21:31:08.390Z,0.98
2022-08-01T21:34:12.266Z,1.48
2022-08-01T21:37:16.714Z,1.15
2022-08-01T21:40:20.323Z,1.20
2022-08-01T21:43:24.706Z,1.08
2022-08-01T21:46:30.497Z,0.90
2022-08-01T21:49:33.893Z,0.90
2022-08-01T21:52:43.475Z,0.93
2022-08-01T21:55:53.944Z,0.90
2022-08-01T21:59:04.518Z,1.10
2022-08-01T22:02:12.834Z,0.90
2022-08-01T22:05:20.938Z,0.90
2022-08-01T22:08:30.195Z,1.10
2022-08-01T22:11:35.455Z,1.00
2022-08-01T22:14:41.521Z,1.05
2022-08-01T22:17:49.733Z,1.05
2022-08-01T22:20:54.658Z,1.35
2022-08-01T22:23:59.058Z,0.80
2022-08-01T22:27:04.720Z,0.60
2022-08-01T22:30:09.189Z,0.90
2022-08-01T22:33:16.292Z,0.90
2022-08-01T22:36:21.649Z,1.17
2022-08-01T22:39:26.484Z,0.93
2022-08-01T22:42:32.716Z,0.95
2022-08-01T22:45:43.112Z,0.95
2022-08-01T22:48:51.399Z,1.23
2022-08-01T22:51:59.071Z,1.08
2022-08-01T22:55:07.647Z,1.10
2022-08-01T22:58:12.186Z,0.73
2022-08-01T23:01:21.191Z,0.95
2022-08-01T23:04:33.643Z,0.77
2022-08-01T23:07:39.731Z,1.17
2022-08-01T23:10:43.380Z,0.90
2022-08-01T23:13:47.327Z,0.98
2022-08-01T23:16:51.400Z,1.52
2022-08-01T23:19:56.051Z,1.02
2022-08-01T23:22:59.762Z,0.75
2022-08-01T23:26:02.687Z,1.45
2022-08-01T23:29:05.365Z,1.02
2022-08-01T23:32:08.056Z,0.93
2022-08-01T23:35:12.220Z,1.23
2022-08-01T23:38:16.030Z,1.00
2022-08-01T23:41:19.164Z,1.13
2022-08-01T23:44:21.882Z,0.88
2022-08-01T23:47:24.853Z,0.98
2022-08-01T23:50:29.027Z,1.10
2022-08-01T23:53:33.859Z,0.80
2022-08-01T23:56:38.830Z,1.08
2022-08-01T23:59:53.371Z,1.00
